createdAt,value
2022-10-05T00:00:03.970Z,62.11
2022-10-05T00:01:03.961Z,62.97
2022-10-05T00:02:04.042Z,64.47
2022-10-05T00:03:03.963Z,63.41
2022-10-05T00:04:03.946Z,62.60
2022-10-05T00:05:03.971Z,62.63
2022-10-05T00:06:03.905Z,63.29
2022-10-05T00:07:03.907Z,64.11
2022-10-05T00:08:03.911Z,64.00
2022-10-05T00:09:03.878Z,64.56
2022-10-05T00:10:03.876Z,61.86
2022-10-05T00:11:03.871Z,65.31
2022-10-05T00:12:03.847Z,63.71
2022-10-05T00:13:03.860Z,63.57
2022-10-05T00:14:03.896Z,63.88
2022-10-05T00:15:03.826Z,62.44
2022-10-05T00:16:03.827Z,63.61
2022-10-05T00:17:03.880Z,64.13
2022-10-05T00:18:03.818Z,63.25
2022-10-05T00:19:03.787Z,63.16
2022-10-05T00:20:03.769Z,63.40
2022-10-05T00:21:03.765Z,62.37
2022-10-05T00:22:03.763Z,63.85
2022-10-05T00:23:03.777Z,63.13
2022-10-05T00:24:03.742Z,62.63
2022-10-05T00:25:03.730Z,63.87
2022-10-05T00:26:03.713Z,63.97
2022-10-05T00:27:04.717Z,62.84
2022-10-05T00:28:03.801Z,64.23
2022-10-05T00:29:03.687Z,64.90
2022-10-05T00:30:03.683Z,62.84
2022-10-05T00:31:03.674Z,62.51
2022-10-05T00:32:03.694Z,61.68
2022-10-05T00:33:03.678Z,62.66
2022-10-05T00:34:03.650Z,63.18
2022-10-05T00:35:03.639Z,63.84
2022-10-05T00:36:03.617Z,63.40
2022-10-05T00:37:03.623Z,65.36
2022-10-05T00:38:03.630Z,63.19
2022-10-05T00:39:03.600Z,63.49
2022-10-05T00:40:03.580Z,63.48
2022-10-05T00:41:03.578Z,64.19
2022-10-05T00:42:03.566Z,64.99
2022-10-05T00:43:03.582Z,64.28
2022-10-05T00:44:03.554Z,64.59
2022-10-05T00:45:03.537Z,65.75
2022-10-05T00:46:03.603Z,64.71
2022-10-05T00:47:03.534Z,65.67
2022-10-05T00:48:03.530Z,65.69
2022-10-05T00:49:03.496Z,65.50
2022-10-05T00:50:03.493Z,66.53
2022-10-05T00:51:03.473Z,65.54
2022-10-05T00:52:03.469Z,66.73
2022-10-05T00:53:03.480Z,67.29
2022-10-05T00:54:03.458Z,64.05
2022-10-05T00:55:03.428Z,65.51
2022-10-05T00:56:03.423Z,66.01
2022-10-05T00:57:03.410Z,66.18
2022-10-05T00:58:03.422Z,66.35
2022-10-05T00:59:03.398Z,63.99
2022-10-05T01:00:03.390Z,65.25
2022-10-05T01:01:03.425Z,64.42
2022-10-05T01:02:03.428Z,61.74
2022-10-05T01:03:03.378Z,65.05
2022-10-05T01:04:03.350Z,62.77
2022-10-05T01:05:03.342Z,63.72
2022-10-05T01:06:03.326Z,65.72
2022-10-05T01:07:03.316Z,66.14
2022-10-05T01:08:03.335Z,64.17
2022-10-05T01:09:03.296Z,65.13
2022-10-05T01:10:03.289Z,65.16
2022-10-05T01:11:03.272Z,64.86
2022-10-05T01:12:03.267Z,63.78
2022-10-05T01:13:03.281Z,65.37
2022-10-05T01:14:03.251Z,65.39
2022-10-05T01:15:03.244Z,63.54
2022-10-05T01:16:03.268Z,62.74
2022-10-05T01:17:03.240Z,64.10
2022-10-05T01:18:03.226Z,64.19
2022-10-05T01:19:03.190Z,64.28
2022-10-05T01:20:03.198Z,62.47
2022-10-05T01:21:03.190Z,65.04
2022-10-05T01:22:03.177Z,65.13
2022-10-05T01:23:03.165Z,63.89
2022-10-05T01:24:03.157Z,63.07
2022-10-05T01:25:03.149Z,63.74
2022-10-05T01:26:03.139Z,63.51
2022-10-05T01:27:03.124Z,66.77
2022-10-05T01:28:03.186Z,64.27
2022-10-05T01:29:03.107Z,64.41
2022-10-05T01:30:03.102Z,64.50
2022-10-05T01:31:03.082Z,63.97
2022-10-05T01:32:03.074Z,65.92
2022-10-05T01:33:03.081Z,64.45
2022-10-05T01:34:05.723Z,64.64
2022-10-05T01:35:03.052Z,63.63
2022-10-05T01:36:03.033Z,61.85
2022-10-05T01:37:03.028Z,63.00
2022-10-05T01:38:03.035Z,64.18
2022-10-05T01:39:03.011Z,63.67
2022-10-05T01:40:03.012Z,63.40
2022-10-05T01:41:02.987Z,61.66
2022-10-05T01:42:02.973Z,61.93
2022-10-05T01:43:02.991Z,59.73
2022-10-05T01:44:02.961Z,59.97
2022-10-05T01:45:02.956Z,60.56
2022-10-05T01:46:03.007Z,61.89
2022-10-05T01:47:02.928Z,62.98
2022-10-05T01:48:02.935Z,62.09
2022-10-05T01:49:02.913Z,61.40
2022-10-05T01:50:02.893Z,63.05
2022-10-05T01:51:02.891Z,62.60
2022-10-05T01:52:02.892Z,58.50
2022-10-05T01:53:02.892Z,62.61
2022-10-05T01:54:02.861Z,61.17
2022-10-05T01:55:02.856Z,61.47
2022-10-05T01:56:02.840Z,63.50
2022-10-05T01:57:02.831Z,63.28
2022-10-05T01:58:02.838Z,63.91
2022-10-05T01:59:02.828Z,62.46
2022-10-05T02:00:02.798Z,63.09
2022-10-05T02:01:02.824Z,63.24
2022-10-05T02:02:02.869Z,64.72
2022-10-05T02:03:02.793Z,62.89
2022-10-05T02:04:02.765Z,62.91
2022-10-05T02:05:03.225Z,65.35
2022-10-05T02:06:02.752Z,66.17
2022-10-05T02:07:02.784Z,65.34
2022-10-05T02:08:02.751Z,65.91
2022-10-05T02:09:02.713Z,67.37
2022-10-05T02:10:02.701Z,69.19
2022-10-05T02:11:02.700Z,67.48
2022-10-05T02:12:02.695Z,67.85
2022-10-05T02:13:02.695Z,67.54
2022-10-05T02:14:02.657Z,66.67
2022-10-05T02:15:02.656Z,66.34
2022-10-05T02:16:02.723Z,67.01
2022-10-05T02:17:02.639Z,67.45
2022-10-05T02:18:02.636Z,66.11
2022-10-05T02:19:02.617Z,66.61
2022-10-05T02:20:02.607Z,67.55
2022-10-05T02:21:02.595Z,67.74
2022-10-05T02:22:02.582Z,67.38
2022-10-05T02:23:02.609Z,67.16
2022-10-05T02:24:02.571Z,68.32
2022-10-05T02:25:02.562Z,66.82
2022-10-05T02:26:02.539Z,67.76
2022-10-05T02:27:02.532Z,66.75
2022-10-05T02:28:02.606Z,68.36
2022-10-05T02:29:02.519Z,68.42
2022-10-05T02:30:02.512Z,66.28
2022-10-05T02:31:02.549Z,65.81
2022-10-05T02:32:02.488Z,66.15
2022-10-05T02:33:02.500Z,66.41
2022-10-05T02:34:02.467Z,67.10
2022-10-05T02:35:02.471Z,66.99
2022-10-05T02:36:02.456Z,65.04
2022-10-05T02:37:02.440Z,66.28
2022-10-05T02:38:02.438Z,66.17
2022-10-05T02:39:02.422Z,66.40
2022-10-05T02:40:02.405Z,67.44
2022-10-05T02:41:02.403Z,66.50
2022-10-05T02:42:02.395Z,64.78
2022-10-05T02:43:02.395Z,66.43
2022-10-05T02:44:02.368Z,63.14
2022-10-05T02:45:02.357Z,64.47
2022-10-05T02:46:02.347Z,66.99
2022-10-05T02:47:02.344Z,65.25
2022-10-05T02:48:02.377Z,64.94
2022-10-05T02:49:02.321Z,66.41
2022-10-05T02:50:02.301Z,65.28
2022-10-05T02:51:02.307Z,65.03
2022-10-05T02:52:02.288Z,65.17
2022-10-05T02:53:02.302Z,64.63
2022-10-05T02:54:02.258Z,65.92
2022-10-05T02:55:02.258Z,63.20
2022-10-05T02:56:02.250Z,65.10
2022-10-05T02:57:02.243Z,64.51
2022-10-05T02:58:02.244Z,65.46
2022-10-05T02:59:02.243Z,65.23
2022-10-05T03:00:02.207Z,63.97
2022-10-05T03:01:02.237Z,64.50
2022-10-05T03:02:02.219Z,62.35
2022-10-05T03:03:02.192Z,63.12
2022-10-05T03:04:02.166Z,62.87
2022-10-05T03:05:02.156Z,64.12
2022-10-05T03:06:02.155Z,63.23
2022-10-05T03:07:02.137Z,63.47
2022-10-05T03:08:02.148Z,66.39
2022-10-05T03:09:02.109Z,63.70
2022-10-05T03:10:02.094Z,62.70
2022-10-05T03:11:02.093Z,64.94
2022-10-05T03:12:02.073Z,63.37
2022-10-05T03:13:03.102Z,64.64
2022-10-05T03:14:02.074Z,63.85
2022-10-05T03:15:02.061Z,63.78
2022-10-05T03:16:02.109Z,64.56
2022-10-05T03:17:02.033Z,64.44
2022-10-05T03:18:02.049Z,65.05
2022-10-05T03:19:02.020Z,67.04
2022-10-05T03:20:02.009Z,66.21
2022-10-05T03:21:02.000Z,64.43
2022-10-05T03:22:01.987Z,65.76
2022-10-05T03:23:01.995Z,63.15
2022-10-05T03:24:01.958Z,64.84
2022-10-05T03:25:01.958Z,66.20
2022-10-05T03:26:01.950Z,67.86
2022-10-05T03:27:01.933Z,65.46
2022-10-05T03:28:01.981Z,67.69
2022-10-05T03:29:01.926Z,67.26
2022-10-05T03:30:01.908Z,65.78
2022-10-05T03:31:01.974Z,66.05
2022-10-05T03:32:01.888Z,67.58
2022-10-05T03:33:01.901Z,68.14
2022-10-05T03:34:01.874Z,67.20
2022-10-05T03:35:01.862Z,65.21
2022-10-05T03:36:01.877Z,66.81
2022-10-05T03:37:01.834Z,68.99
2022-10-05T03:38:01.841Z,67.43
2022-10-05T03:39:01.820Z,67.22
2022-10-05T03:40:01.807Z,66.71
2022-10-05T03:41:01.800Z,67.42
2022-10-05T03:42:01.788Z,67.76
2022-10-05T03:43:01.806Z,65.91
2022-10-05T03:44:01.769Z,67.82
2022-10-05T03:45:01.758Z,67.42
2022-10-05T03:46:01.750Z,67.22
2022-10-05T03:47:01.741Z,66.64
2022-10-05T03:48:01.910Z,67.75
2022-10-05T03:49:01.719Z,67.73
2022-10-05T03:50:01.716Z,67.99
2022-10-05T03:51:01.710Z,67.85
2022-10-05T03:52:01.688Z,67.77
2022-10-05T03:53:01.701Z,68.16
2022-10-05T03:54:01.676Z,67.08
2022-10-05T03:55:01.672Z,67.64
2022-10-05T03:56:03.461Z,67.71
2022-10-05T03:57:02.648Z,68.45
2022-10-05T03:58:01.636Z,67.76
2022-10-05T03:59:01.657Z,68.06
2022-10-05T04:00:01.615Z,67.81
2022-10-05T04:01:01.610Z,67.73
2022-10-05T04:02:01.596Z,69.08
2022-10-05T04:03:01.730Z,67.88
2022-10-05T04:04:01.583Z,68.69
2022-10-05T04:05:01.567Z,67.72
2022-10-05T04:06:01.561Z,67.77
2022-10-05T04:07:01.550Z,68.73
2022-10-05T04:08:01.539Z,69.85
2022-10-05T04:09:01.545Z,69.72
2022-10-05T04:10:01.527Z,69.15
2022-10-05T04:11:01.512Z,69.35
2022-10-05T04:12:01.505Z,69.26
2022-10-05T04:13:01.498Z,70.31
2022-10-05T04:14:01.512Z,68.29
2022-10-05T04:15:01.476Z,68.45
2022-10-05T04:16:01.504Z,68.59
2022-10-05T04:17:01.447Z,69.89
2022-10-05T04:18:01.468Z,70.25
2022-10-05T04:19:01.435Z,70.33
2022-10-05T04:20:01.426Z,69.48
2022-10-05T04:21:01.411Z,71.02
2022-10-05T04:22:01.409Z,71.17
2022-10-05T04:23:01.436Z,70.35
2022-10-05T04:24:01.386Z,70.42
2022-10-05T04:25:01.376Z,71.49
2022-10-05T04:26:01.366Z,70.84
2022-10-05T04:27:01.358Z,70.83
2022-10-05T04:28:01.443Z,70.05
2022-10-05T04:29:01.336Z,70.39
2022-10-05T04:30:01.340Z,70.27
2022-10-05T04:31:01.350Z,70.62
2022-10-05T04:32:01.313Z,70.35
2022-10-05T04:33:01.294Z,70.42
2022-10-05T04:34:01.305Z,70.46
2022-10-05T04:35:01.295Z,69.15
2022-10-05T04:36:01.271Z,70.78
2022-10-05T04:37:01.277Z,70.34
2022-10-05T04:38:01.255Z,70.71
2022-10-05T04:39:01.269Z,69.42
2022-10-05T04:40:01.228Z,70.75
2022-10-05T04:41:01.217Z,70.35
2022-10-05T04:42:01.211Z,70.18
2022-10-05T04:43:01.238Z,69.65
2022-10-05T04:44:01.205Z,68.94
2022-10-05T04:45:01.171Z,69.28
2022-10-05T04:46:01.181Z,70.02
2022-10-05T04:47:01.207Z,70.07
2022-10-05T04:48:01.169Z,69.73
2022-10-05T04:49:01.150Z,68.16
2022-10-05T04:50:01.128Z,69.88
2022-10-05T04:51:01.115Z,70.21
2022-10-05T04:52:02.108Z,69.02
2022-10-05T04:53:01.149Z,69.17
2022-10-05T04:54:01.090Z,68.55
2022-10-05T04:55:01.080Z,69.10
2022-10-05T04:56:01.075Z,67.76
2022-10-05T04:57:01.066Z,67.52
2022-10-05T04:58:01.082Z,67.57
2022-10-05T04:59:01.053Z,67.30
2022-10-05T05:00:01.044Z,67.60
2022-10-05T05:01:01.055Z,67.86
2022-10-05T05:02:01.028Z,67.10
2022-10-05T05:03:01.039Z,67.83
2022-10-05T05:04:01.065Z,68.52
2022-10-05T05:05:00.975Z,68.47
2022-10-05T05:06:17.318Z,68.17
2022-10-05T05:07:02.979Z,69.53
2022-10-05T05:08:00.980Z,69.36
2022-10-05T05:09:00.941Z,70.17
2022-10-05T05:10:00.937Z,69.15
2022-10-05T05:11:00.934Z,70.91
2022-10-05T05:12:00.928Z,70.88
2022-10-05T05:13:00.924Z,71.36
2022-10-05T05:14:00.909Z,70.45
2022-10-05T05:15:00.894Z,70.64
2022-10-05T05:16:00.979Z,70.92
2022-10-05T05:17:00.865Z,71.12
2022-10-05T05:18:00.885Z,71.36
2022-10-05T05:19:00.857Z,70.81
2022-10-05T05:20:00.850Z,71.20
2022-10-05T05:21:00.817Z,72.22
2022-10-05T05:22:00.814Z,71.89
2022-10-05T05:23:00.828Z,72.49
2022-10-05T05:24:00.797Z,72.49
2022-10-05T05:25:00.792Z,71.93
2022-10-05T05:26:00.785Z,71.57
2022-10-05T05:27:00.771Z,71.94
2022-10-05T05:28:00.837Z,71.90
2022-10-05T05:29:00.748Z,71.56
2022-10-05T05:30:00.739Z,71.59
2022-10-05T05:31:00.807Z,71.13
2022-10-05T05:32:00.723Z,69.82
2022-10-05T05:33:00.720Z,69.10
2022-10-05T05:34:00.700Z,69.86
2022-10-05T05:35:00.692Z,70.21
2022-10-05T05:36:00.678Z,68.78
2022-10-05T05:37:00.662Z,68.91
2022-10-05T05:38:00.677Z,70.07
2022-10-05T05:39:00.657Z,70.02
2022-10-05T05:40:00.642Z,69.22
2022-10-05T05:41:00.632Z,68.92
2022-10-05T05:42:00.623Z,69.07
2022-10-05T05:43:00.625Z,69.46
2022-10-05T05:44:00.605Z,69.22
2022-10-05T05:45:00.598Z,69.13
2022-10-05T05:46:00.588Z,69.65
2022-10-05T05:47:05.028Z,70.19
2022-10-05T05:48:01.585Z,68.93
2022-10-05T05:49:00.549Z,69.37
2022-10-05T05:50:06.337Z,69.02
2022-10-05T05:51:02.530Z,69.71
2022-10-05T05:52:00.519Z,69.48
2022-10-05T05:53:00.533Z,69.26
2022-10-05T05:54:00.507Z,69.40
2022-10-05T05:55:00.492Z,68.91
2022-10-05T05:56:00.482Z,70.08
2022-10-05T05:57:00.476Z,69.03
2022-10-05T05:58:00.485Z,69.47
2022-10-05T05:59:00.456Z,69.96
2022-10-05T06:00:01.452Z,69.14
2022-10-05T06:01:00.446Z,69.40
2022-10-05T06:02:00.498Z,69.17
2022-10-05T06:03:00.642Z,68.81
2022-10-05T06:04:00.411Z,68.55
2022-10-05T06:05:00.399Z,68.24
2022-10-05T06:06:00.469Z,69.45
2022-10-05T06:07:00.386Z,69.48
2022-10-05T06:08:00.385Z,68.25
2022-10-05T06:09:00.365Z,68.69
2022-10-05T06:10:00.351Z,68.57
2022-10-05T06:11:00.342Z,69.37
2022-10-05T06:12:00.326Z,68.71
2022-10-05T06:13:01.826Z,67.61
2022-10-05T06:14:01.310Z,67.70
2022-10-05T06:15:00.319Z,67.48
2022-10-05T06:16:00.317Z,67.97
2022-10-05T06:17:00.278Z,67.36
2022-10-05T06:18:00.293Z,68.36
2022-10-05T06:19:00.263Z,67.45
2022-10-05T06:20:05.019Z,67.86
2022-10-05T06:21:01.247Z,69.48
2022-10-05T06:22:00.234Z,68.27
2022-10-05T06:23:00.227Z,68.72
2022-10-05T06:24:00.210Z,67.53
2022-10-05T06:25:00.205Z,67.70
2022-10-05T06:26:00.196Z,66.32
2022-10-05T06:27:00.191Z,66.52
2022-10-05T06:28:00.274Z,67.82
2022-10-05T06:29:00.167Z,68.33
2022-10-05T06:30:00.150Z,67.61
2022-10-05T06:31:00.161Z,67.49
2022-10-05T06:32:00.204Z,66.92
2022-10-05T06:33:00.144Z,66.90
2022-10-05T06:34:00.117Z,66.05
2022-10-05T06:35:00.156Z,66.95
2022-10-05T06:36:00.084Z,67.43
2022-10-05T06:37:00.093Z,66.54
2022-10-05T06:38:00.116Z,67.40
2022-10-05T06:39:00.070Z,67.02
2022-10-05T06:40:01.260Z,66.74
2022-10-05T06:41:00.051Z,66.13
2022-10-05T06:42:00.032Z,65.74
2022-10-05T06:43:00.067Z,67.51
2022-10-05T06:44:00.006Z,68.33
2022-10-05T06:45:00.010Z,65.73
2022-10-05T06:46:00.082Z,66.75
2022-10-05T06:46:59.984Z,65.93
2022-10-05T06:48:04.380Z,66.80
2022-10-05T06:49:01.970Z,67.61
2022-10-05T06:49:59.950Z,65.58
2022-10-05T06:50:59.945Z,66.76
2022-10-05T06:51:59.937Z,66.55
2022-10-05T06:52:59.940Z,66.00
2022-10-05T06:53:59.918Z,65.93
2022-10-05T06:54:59.901Z,66.01
2022-10-05T06:55:59.895Z,66.79
2022-10-05T06:56:59.886Z,66.66
2022-10-05T06:57:59.893Z,66.30
2022-10-05T06:59:12.469Z,66.48
2022-10-05T06:59:59.853Z,66.21
2022-10-05T07:00:59.879Z,64.88
2022-10-05T07:01:59.853Z,64.96
2022-10-05T07:02:59.844Z,65.83
2022-10-05T07:03:59.811Z,66.52
2022-10-05T07:04:59.802Z,65.82
2022-10-05T07:05:59.793Z,64.88
2022-10-05T07:06:59.788Z,66.29
2022-10-05T07:07:59.798Z,65.88
2022-10-05T07:08:59.769Z,66.32
2022-10-05T07:09:59.754Z,64.56
2022-10-05T07:10:59.752Z,66.00
2022-10-05T07:12:03.590Z,65.42
2022-10-05T07:13:01.887Z,65.02
2022-10-05T07:13:59.718Z,66.34
2022-10-05T07:14:59.717Z,64.87
2022-10-05T07:15:59.747Z,64.34
2022-10-05T07:16:59.702Z,65.63
2022-10-05T07:17:59.696Z,65.18
2022-10-05T07:18:59.684Z,65.70
2022-10-05T07:19:59.662Z,66.20
2022-10-05T07:20:59.670Z,65.77
2022-10-05T07:21:59.685Z,65.37
2022-10-05T07:22:59.714Z,65.49
2022-10-05T07:23:59.618Z,64.32
2022-10-05T07:24:59.622Z,65.32
2022-10-05T07:25:59.633Z,65.23
2022-10-05T07:26:59.605Z,65.37
2022-10-05T07:27:59.636Z,65.60
2022-10-05T07:28:59.581Z,65.33
2022-10-05T07:29:59.547Z,64.73
2022-10-05T07:30:59.627Z,65.89
2022-10-05T07:31:59.533Z,64.89
2022-10-05T07:33:00.543Z,65.56
2022-10-05T07:33:59.523Z,64.02
2022-10-05T07:34:59.520Z,65.10
2022-10-05T07:35:59.507Z,65.39
2022-10-05T07:36:59.659Z,66.60
2022-10-05T07:37:59.478Z,65.46
2022-10-05T07:38:59.492Z,66.04
2022-10-05T07:40:00.907Z,63.61
2022-10-05T07:41:00.500Z,66.46
2022-10-05T07:41:59.434Z,65.53
2022-10-05T07:42:59.428Z,65.44
2022-10-05T07:44:03.380Z,64.44
2022-10-05T07:45:00.412Z,64.74
2022-10-05T07:45:59.449Z,65.14
2022-10-05T07:46:59.391Z,65.24
2022-10-05T07:47:59.385Z,65.45
2022-10-05T07:48:59.380Z,64.96
2022-10-05T07:49:59.338Z,66.50
2022-10-05T07:50:59.344Z,64.56
2022-10-05T07:51:59.360Z,65.57
2022-10-05T07:52:59.321Z,65.34
2022-10-05T07:53:59.321Z,66.31
2022-10-05T07:54:59.303Z,66.00
2022-10-05T07:55:59.705Z,64.38
2022-10-05T07:56:59.285Z,63.89
2022-10-05T07:57:59.285Z,65.17
2022-10-05T07:58:59.259Z,64.13
2022-10-05T07:59:59.257Z,65.40
2022-10-05T08:00:59.240Z,66.00
2022-10-05T08:01:59.310Z,64.88
2022-10-05T08:02:59.366Z,64.74
2022-10-05T08:03:59.222Z,65.72
2022-10-05T08:04:59.207Z,65.53
2022-10-05T08:05:59.192Z,65.86
2022-10-05T08:06:59.186Z,64.95
2022-10-05T08:07:59.198Z,63.94
2022-10-05T08:08:59.170Z,65.51
2022-10-05T08:09:59.144Z,66.30
2022-10-05T08:10:59.157Z,65.02
2022-10-05T08:11:59.299Z,65.75
2022-10-05T08:12:59.139Z,66.82
2022-10-05T08:13:59.104Z,64.34
2022-10-05T08:14:59.107Z,66.75
2022-10-05T08:15:59.353Z,65.17
2022-10-05T08:16:59.107Z,64.83
2022-10-05T08:17:59.165Z,64.90
2022-10-05T08:18:59.066Z,66.08
2022-10-05T08:19:59.052Z,65.00
2022-10-05T08:20:59.047Z,63.70
2022-10-05T08:21:59.041Z,63.82
2022-10-05T08:22:59.046Z,66.29
2022-10-05T08:23:59.021Z,65.58
2022-10-05T08:24:59.009Z,64.64
2022-10-05T08:25:59.006Z,64.81
2022-10-05T08:26:58.993Z,64.75
2022-10-05T08:27:59.033Z,64.53
2022-10-05T08:28:58.978Z,64.31
2022-10-05T08:29:58.964Z,63.98
2022-10-05T08:30:59.018Z,64.43
2022-10-05T08:31:58.942Z,63.59
2022-10-05T08:32:58.949Z,64.25
2022-10-05T08:33:58.927Z,64.23
2022-10-05T08:34:58.950Z,64.41
2022-10-05T08:35:58.901Z,63.80
2022-10-05T08:36:58.892Z,64.13
2022-10-05T08:37:58.870Z,62.94
2022-10-05T08:38:58.892Z,63.80
2022-10-05T08:39:58.899Z,63.71
2022-10-05T08:40:58.848Z,64.92
2022-10-05T08:41:58.822Z,63.81
2022-10-05T08:42:58.907Z,65.87
2022-10-05T08:43:58.843Z,64.21
2022-10-05T08:44:58.809Z,65.49
2022-10-05T08:45:58.893Z,63.81
2022-10-05T08:46:58.792Z,63.67
2022-10-05T08:47:58.781Z,63.58
2022-10-05T08:48:58.790Z,64.47
2022-10-05T08:49:58.752Z,62.80
2022-10-05T08:50:58.754Z,63.94
2022-10-05T08:51:58.748Z,63.37
2022-10-05T08:52:58.729Z,63.04
2022-10-05T08:53:58.745Z,64.67
2022-10-05T08:54:58.708Z,63.88
2022-10-05T08:55:58.746Z,62.79
2022-10-05T08:56:58.708Z,63.77
2022-10-05T08:57:58.711Z,62.57
2022-10-05T08:58:58.689Z,63.12
2022-10-05T08:59:58.672Z,63.24
2022-10-05T09:00:58.739Z,64.82
2022-10-05T09:01:58.732Z,62.57
2022-10-05T09:02:58.715Z,63.63
2022-10-05T09:03:58.651Z,65.04
2022-10-05T09:04:58.624Z,63.36
2022-10-05T09:05:58.603Z,63.48
2022-10-05T09:06:58.614Z,63.51
2022-10-05T09:07:58.586Z,64.30
2022-10-05T09:08:58.594Z,64.18
2022-10-05T09:10:01.750Z,64.04
2022-10-05T09:10:58.557Z,63.23
2022-10-05T09:11:58.546Z,62.91
2022-10-05T09:12:58.544Z,62.83
2022-10-05T09:13:58.540Z,64.51
2022-10-05T09:15:23.861Z,64.49
2022-10-05T09:16:00.610Z,63.45
2022-10-05T09:16:58.497Z,64.60
2022-10-05T09:17:58.483Z,65.05
2022-10-05T09:18:58.505Z,63.91
2022-10-05T09:19:58.470Z,63.71
2022-10-05T09:20:58.457Z,63.36
2022-10-05T09:21:58.503Z,65.30
2022-10-05T09:22:58.436Z,63.27
2022-10-05T09:23:58.438Z,64.16
2022-10-05T09:24:58.411Z,63.95
2022-10-05T09:25:58.408Z,63.92
2022-10-05T09:26:58.413Z,63.89
2022-10-05T09:27:58.436Z,64.30
2022-10-05T09:28:58.393Z,64.32
2022-10-05T09:29:58.361Z,65.97
2022-10-05T09:30:58.396Z,63.72
2022-10-05T09:31:58.342Z,64.02
2022-10-05T09:32:58.332Z,63.84
2022-10-05T09:33:58.337Z,63.12
2022-10-05T09:34:58.318Z,63.30
2022-10-05T09:35:58.304Z,63.17
2022-10-05T09:36:58.303Z,64.12
2022-10-05T09:37:58.309Z,62.85
2022-10-05T09:38:58.296Z,63.60
2022-10-05T09:40:01.314Z,63.89
2022-10-05T09:40:59.265Z,63.88
2022-10-05T09:41:58.252Z,62.98
2022-10-05T09:42:58.234Z,64.20
2022-10-05T09:43:58.251Z,64.17
2022-10-05T09:44:58.213Z,63.34
2022-10-05T09:45:58.231Z,63.19
2022-10-05T09:46:58.215Z,63.99
2022-10-05T09:47:58.218Z,62.61
2022-10-05T09:48:58.184Z,62.36
2022-10-05T09:49:58.174Z,63.29
2022-10-05T09:50:58.171Z,63.28
2022-10-05T09:51:58.160Z,62.61
2022-10-05T09:52:58.166Z,63.77
2022-10-05T09:53:58.135Z,63.17
2022-10-05T09:54:58.130Z,63.15
2022-10-05T09:55:58.118Z,62.90
2022-10-05T09:56:58.117Z,62.31
2022-10-05T09:57:58.118Z,62.70
2022-10-05T09:58:58.089Z,63.61
2022-10-05T09:59:58.120Z,62.73
2022-10-05T10:01:08.996Z,63.34
2022-10-05T10:01:59.099Z,63.21
2022-10-05T10:02:58.265Z,62.85
2022-10-05T10:03:58.037Z,61.58
2022-10-05T10:04:58.022Z,63.18
2022-10-05T10:05:58.059Z,62.53
2022-10-05T10:06:58.006Z,63.66
2022-10-05T10:07:58.027Z,62.31
2022-10-05T10:08:58.004Z,63.04
2022-10-05T10:09:57.987Z,63.15
2022-10-05T10:10:57.970Z,62.45
2022-10-05T10:11:57.954Z,63.02
2022-10-05T10:12:57.967Z,62.41
2022-10-05T10:13:57.946Z,63.26
2022-10-05T10:15:02.510Z,63.63
2022-10-05T10:15:59.019Z,63.07
2022-10-05T10:16:57.917Z,63.15
2022-10-05T10:17:57.916Z,64.08
2022-10-05T10:18:57.892Z,62.97
2022-10-05T10:19:57.887Z,62.15
2022-10-05T10:20:57.868Z,63.32
2022-10-05T10:21:57.868Z,63.70
2022-10-05T10:22:57.866Z,63.39
2022-10-05T10:23:57.836Z,62.74
2022-10-05T10:24:57.834Z,64.72
2022-10-05T10:25:57.815Z,65.42
2022-10-05T10:26:57.803Z,63.71
2022-10-05T10:27:57.901Z,63.81
2022-10-05T10:28:57.815Z,64.26
2022-10-05T10:29:57.786Z,63.92
2022-10-05T10:30:57.906Z,65.07
2022-10-05T10:31:57.758Z,65.34
2022-10-05T10:32:57.773Z,64.33
2022-10-05T10:33:57.777Z,64.59
2022-10-05T10:34:57.729Z,64.54
2022-10-05T10:35:59.560Z,64.99
2022-10-05T10:36:58.719Z,65.02
2022-10-05T10:37:57.741Z,64.47
2022-10-05T10:38:57.681Z,64.02
2022-10-05T10:39:57.671Z,64.66
2022-10-05T10:40:57.667Z,64.16
2022-10-05T10:41:57.666Z,64.34
2022-10-05T10:42:57.658Z,64.84
2022-10-05T10:43:57.629Z,64.74
2022-10-05T10:44:57.625Z,64.90
2022-10-05T10:45:57.660Z,66.03
2022-10-05T10:46:57.663Z,64.36
2022-10-05T10:47:57.595Z,64.80
2022-10-05T10:48:57.587Z,64.76
2022-10-05T10:49:57.575Z,64.54
2022-10-05T10:50:57.565Z,65.64
2022-10-05T10:51:57.553Z,65.56
2022-10-05T10:52:57.570Z,63.92
2022-10-05T10:53:57.643Z,63.31
2022-10-05T10:54:57.524Z,63.91
2022-10-05T10:55:57.510Z,65.19
2022-10-05T10:56:57.494Z,65.13
2022-10-05T10:57:57.529Z,63.75
2022-10-05T10:58:57.483Z,63.83
2022-10-05T10:59:57.475Z,64.27
2022-10-05T11:00:57.468Z,64.12
2022-10-05T11:01:57.579Z,64.04
2022-10-05T11:02:57.508Z,63.63
2022-10-05T11:03:57.473Z,63.86
2022-10-05T11:04:57.422Z,64.82
2022-10-05T11:05:57.417Z,64.68
2022-10-05T11:06:57.409Z,63.81
2022-10-05T11:07:57.383Z,64.69
2022-10-05T11:08:57.409Z,63.03
2022-10-05T11:09:57.374Z,63.15
2022-10-05T11:10:57.377Z,62.93
2022-10-05T11:11:57.339Z,62.82
2022-10-05T11:12:57.348Z,63.53
2022-10-05T11:13:57.356Z,63.04
2022-10-05T11:14:57.339Z,63.90
2022-10-05T11:15:57.362Z,62.88
2022-10-05T11:16:57.304Z,64.10
2022-10-05T11:17:57.298Z,63.59
2022-10-05T11:18:57.310Z,63.98
2022-10-05T11:20:05.198Z,63.03
2022-10-05T11:20:59.272Z,63.55
2022-10-05T11:21:57.254Z,64.16
2022-10-05T11:22:57.254Z,62.96
2022-10-05T11:23:57.238Z,63.07
2022-10-05T11:24:57.219Z,63.94
2022-10-05T11:25:57.216Z,63.29
2022-10-05T11:26:57.207Z,64.10
2022-10-05T11:27:57.210Z,63.65
2022-10-05T11:28:57.202Z,63.14
2022-10-05T11:29:57.175Z,63.28
2022-10-05T11:30:57.197Z,62.50
2022-10-05T11:31:57.247Z,62.66
2022-10-05T11:32:57.149Z,63.03
2022-10-05T11:33:57.143Z,62.45
2022-10-05T11:34:57.124Z,63.06
2022-10-05T11:35:57.102Z,63.51
2022-10-05T11:36:57.109Z,64.09
2022-10-05T11:37:57.098Z,63.17
2022-10-05T11:38:57.107Z,62.96
2022-10-05T11:39:57.075Z,63.78
2022-10-05T11:40:57.072Z,62.25
2022-10-05T11:41:57.065Z,62.62
2022-10-05T11:42:57.046Z,62.88
2022-10-05T11:43:57.056Z,62.96
2022-10-05T11:44:57.033Z,62.60
2022-10-05T11:45:57.038Z,63.47
2022-10-05T11:46:57.010Z,63.21
2022-10-05T11:47:57.002Z,62.36
2022-10-05T11:48:57.007Z,62.67
2022-10-05T11:49:56.985Z,62.62
2022-10-05T11:50:56.972Z,63.75
2022-10-05T11:51:56.951Z,63.02
2022-10-05T11:52:56.950Z,62.54
2022-10-05T11:53:56.957Z,63.41
2022-10-05T11:55:12.505Z,63.46
2022-10-05T11:55:58.911Z,62.06
2022-10-05T11:56:57.148Z,62.71
2022-10-05T11:57:56.902Z,62.71
2022-10-05T11:58:56.910Z,63.39
2022-10-05T11:59:56.872Z,62.99
2022-10-05T12:00:56.870Z,62.82
2022-10-05T12:01:56.859Z,63.04
2022-10-05T12:02:56.906Z,63.30
2022-10-05T12:03:56.914Z,61.99
2022-10-05T12:04:56.831Z,62.56
2022-10-05T12:05:56.819Z,63.82
2022-10-05T12:06:56.811Z,62.39
2022-10-05T12:07:56.798Z,62.99
2022-10-05T12:08:56.817Z,63.83
2022-10-05T12:09:56.784Z,63.59
2022-10-05T12:10:56.765Z,63.30
2022-10-05T12:11:58.025Z,64.33
2022-10-05T12:12:56.995Z,63.20
2022-10-05T12:13:56.756Z,64.31
2022-10-05T12:14:56.734Z,63.63
2022-10-05T12:15:56.733Z,63.39
2022-10-05T12:16:56.707Z,64.13
2022-10-05T12:17:56.700Z,64.68
2022-10-05T12:18:56.705Z,64.40
2022-10-05T12:19:56.671Z,63.79
2022-10-05T12:20:56.692Z,63.67
2022-10-05T12:21:56.664Z,63.36
2022-10-05T12:22:57.020Z,63.37
2022-10-05T12:23:56.645Z,63.15
2022-10-05T12:24:56.624Z,63.16
2022-10-05T12:25:56.618Z,64.05
2022-10-05T12:26:56.619Z,63.82
2022-10-05T12:27:56.628Z,62.84
2022-10-05T12:28:56.612Z,63.27
2022-10-05T12:29:56.596Z,63.10
2022-10-05T12:30:56.576Z,63.39
2022-10-05T12:31:56.557Z,63.20
2022-10-05T12:33:01.016Z,64.09
2022-10-05T12:33:58.576Z,63.47
2022-10-05T12:35:01.506Z,63.97
2022-10-05T12:35:58.527Z,63.11
2022-10-05T12:37:03.885Z,63.88
2022-10-05T12:37:58.505Z,64.12
2022-10-05T12:38:56.511Z,64.02
2022-10-05T12:39:56.489Z,63.64
2022-10-05T12:40:56.469Z,63.17
2022-10-05T12:41:57.477Z,63.27
2022-10-05T12:42:56.454Z,62.87
2022-10-05T12:43:56.461Z,63.59
2022-10-05T12:44:56.433Z,62.98
2022-10-05T12:45:56.549Z,63.53
2022-10-05T12:46:56.406Z,63.09
2022-10-05T12:47:56.439Z,63.47
2022-10-05T12:48:56.415Z,64.62
2022-10-05T12:49:56.383Z,64.15
2022-10-05T12:50:56.376Z,62.71
2022-10-05T12:51:56.361Z,62.53